createdAt,value
2019-02-24T00:01:36.829Z,82.30
2019-02-24T00:04:42.462Z,82.12
2019-02-24T00:07:47.665Z,81.96
2019-02-24T00:10:52.866Z,81.72
2019-02-24T00:13:58.015Z,82.30
2019-02-24T00:17:03.407Z,83.00
2019-02-24T00:20:08.575Z,82.97
2019-02-24T00:23:13.745Z,82.80
2019-02-24T00:26:19.023Z,82.88
2019-02-24T00:29:24.288Z,83.35
2019-02-24T00:32:29.555Z,83.06
2019-02-24T00:35:34.757Z,82.88
2019-02-24T00:38:39.967Z,82.82
2019-02-24T00:41:45.374Z,82.75
2019-02-24T00:44:50.553Z,82.30
2019-02-24T00:47:55.790Z,81.60
2019-02-24T00:51:02.143Z,81.19
2019-02-24T00:54:07.387Z,81.67
2019-02-24T00:57:12.711Z,80.89
2019-02-24T01:00:17.928Z,79.65
2019-02-24T01:03:23.140Z,79.56
2019-02-24T01:06:28.341Z,79.34
2019-02-24T01:09:33.510Z,79.06
2019-02-24T01:12:38.565Z,78.93
2019-02-24T01:15:43.818Z,78.84
2019-02-24T01:18:49.031Z,79.30
2019-02-24T01:21:54.178Z,79.68
2019-02-24T01:24:59.331Z,80.08
2019-02-24T01:28:04.481Z,80.41
2019-02-24T01:31:09.613Z,80.62
2019-02-24T01:34:14.761Z,80.75
2019-02-24T01:37:19.937Z,80.56
2019-02-24T01:40:25.270Z,80.66
2019-02-24T01:43:31.363Z,80.54
2019-02-24T01:46:36.515Z,80.90
2019-02-24T01:49:41.608Z,81.58
2019-02-24T01:52:46.726Z,81.61
2019-02-24T01:55:51.879Z,81.65
2019-02-24T01:58:57.121Z,81.71
2019-02-24T02:02:02.232Z,81.83
2019-02-24T02:05:07.550Z,82.31
2019-02-24T02:08:12.709Z,82.94
2019-02-24T02:11:18.364Z,83.51
2019-02-24T02:14:23.550Z,83.90
2019-02-24T02:17:28.887Z,83.25
2019-02-24T02:20:34.049Z,82.89
2019-02-24T02:23:39.159Z,82.88
2019-02-24T02:26:44.368Z,82.91
2019-02-24T02:29:49.556Z,83.14
2019-02-24T02:32:54.758Z,83.27
2019-02-24T02:35:59.986Z,82.98
2019-02-24T02:39:05.787Z,82.77
2019-02-24T02:42:11.613Z,82.95
2019-02-24T02:45:16.830Z,82.58
2019-02-24T02:48:22.025Z,81.45
2019-02-24T02:51:27.252Z,80.61
2019-02-24T02:54:32.421Z,80.86
2019-02-24T02:57:37.506Z,80.88
2019-02-24T03:00:42.663Z,80.95
2019-02-24T03:03:47.878Z,81.20
2019-02-24T03:07:01.634Z,81.28
2019-02-24T03:10:06.835Z,82.20
2019-02-24T03:13:11.976Z,82.31
2019-02-24T03:16:23.035Z,82.21
2019-02-24T03:19:29.244Z,81.84
2019-02-24T03:22:34.375Z,81.90
2019-02-24T03:25:39.462Z,82.26
2019-02-24T03:28:44.792Z,82.48
2019-02-24T03:31:49.981Z,82.44
2019-02-24T03:34:55.172Z,82.96
2019-02-24T03:38:00.332Z,83.05
2019-02-24T03:41:05.566Z,82.91
2019-02-24T03:44:10.747Z,81.85
2019-02-24T03:47:15.992Z,81.41
2019-02-24T03:50:21.086Z,80.58
2019-02-24T03:53:26.426Z,80.88
2019-02-24T03:56:31.594Z,81.05
2019-02-24T03:59:36.698Z,81.38
2019-02-24T04:02:41.892Z,81.66
2019-02-24T04:05:47.035Z,81.34
2019-02-24T04:08:52.194Z,81.41
2019-02-24T04:11:57.362Z,81.32
2019-02-24T04:15:02.474Z,81.58
2019-02-24T04:18:07.695Z,81.74
2019-02-24T04:21:12.866Z,82.03
2019-02-24T04:24:17.995Z,82.27
2019-02-24T04:27:23.140Z,81.92
2019-02-24T04:30:29.352Z,81.56
2019-02-24T04:33:34.565Z,81.27
2019-02-24T04:36:39.748Z,81.11
2019-02-24T04:39:44.912Z,80.45
2019-02-24T04:42:50.162Z,79.58
2019-02-24T04:45:55.232Z,79.88
2019-02-24T04:49:00.447Z,80.48
2019-02-24T04:52:05.576Z,80.38
2019-02-24T04:55:10.720Z,80.71
2019-02-24T04:58:15.896Z,80.93
2019-02-24T05:01:21.115Z,80.45
2019-02-24T05:04:26.317Z,80.16
2019-02-24T05:07:31.453Z,79.93
2019-02-24T05:10:36.674Z,80.18
2019-02-24T05:13:41.778Z,80.24
2019-02-24T05:16:46.953Z,80.38
2019-02-24T05:19:52.015Z,80.02
2019-02-24T05:22:57.281Z,80.15
2019-02-24T05:26:02.555Z,80.07
2019-02-24T05:29:07.661Z,79.87
2019-02-24T05:32:12.795Z,79.13
2019-02-24T05:35:18.156Z,79.74
2019-02-24T05:38:23.426Z,80.08
2019-02-24T05:41:28.665Z,80.22
2019-02-24T05:44:33.796Z,80.87
2019-02-24T05:47:38.932Z,81.39
2019-02-24T05:50:44.072Z,81.80
2019-02-24T05:53:49.285Z,82.20
2019-02-24T05:56:54.362Z,82.55
2019-02-24T05:59:59.545Z,82.66
2019-02-24T06:03:04.667Z,82.87
2019-02-24T06:06:09.866Z,82.97
2019-02-24T06:09:15.023Z,83.26
2019-02-24T06:12:20.299Z,83.15
2019-02-24T06:15:25.626Z,83.04
2019-02-24T06:18:30.794Z,83.18
2019-02-24T06:21:36.026Z,83.13
2019-02-24T06:24:41.253Z,83.34
2019-02-24T06:27:46.342Z,83.27
2019-02-24T06:30:51.495Z,83.05
2019-02-24T06:33:56.755Z,82.70
2019-02-24T06:37:01.905Z,82.73
2019-02-24T06:40:08.562Z,82.64
2019-02-24T06:43:13.778Z,82.33
2019-02-24T06:46:18.958Z,81.95
2019-02-24T06:49:24.128Z,81.27
2019-02-24T06:52:30.318Z,80.45
2019-02-24T06:55:35.498Z,79.83
2019-02-24T06:58:40.620Z,79.25
2019-02-24T07:01:45.762Z,78.75
2019-02-24T07:04:51.030Z,77.95
2019-02-24T07:07:56.284Z,77.54
2019-02-24T07:11:01.519Z,77.65
2019-02-24T07:14:06.705Z,77.66
2019-02-24T07:17:11.847Z,76.64
2019-02-24T07:20:17.060Z,75.69
2019-02-24T07:23:22.214Z,75.61
2019-02-24T07:26:27.431Z,74.35
2019-02-24T07:29:32.546Z,74.99
2019-02-24T07:32:37.770Z,75.55
2019-02-24T07:35:42.895Z,74.73
2019-02-24T07:38:48.191Z,73.88
2019-02-24T07:41:53.319Z,73.21
2019-02-24T07:44:58.495Z,71.77
2019-02-24T07:48:03.604Z,71.01
2019-02-24T07:51:08.837Z,70.73
2019-02-24T07:54:13.941Z,69.62
2019-02-24T07:57:19.090Z,67.63
2019-02-24T08:00:31.956Z,68.66
2019-02-24T08:03:31.099Z,66.57
2019-02-24T08:06:36.259Z,66.30
2019-02-24T08:09:41.506Z,66.52
2019-02-24T08:12:46.663Z,66.84
2019-02-24T08:15:51.897Z,66.54
2019-02-24T08:18:57.100Z,65.30
2019-02-24T08:22:03.174Z,64.60
2019-02-24T08:25:09.374Z,63.95
2019-02-24T08:28:14.561Z,63.25
2019-02-24T08:31:19.725Z,59.94
2019-02-24T08:34:24.869Z,58.62
2019-02-24T08:37:30.019Z,56.10
2019-02-24T08:40:35.209Z,54.50
2019-02-24T08:43:40.446Z,47.69
2019-02-24T08:46:45.773Z,48.35
2019-02-24T08:49:50.851Z,44.24
2019-02-24T08:52:57.106Z,44.12
2019-02-24T08:56:02.440Z,44.98
2019-02-24T08:59:07.688Z,45.28
2019-02-24T09:02:12.835Z,44.83
2019-02-24T09:05:18.042Z,43.46
2019-02-24T09:08:23.157Z,43.52
2019-02-24T09:11:29.253Z,43.59
2019-02-24T09:14:34.386Z,42.92
2019-02-24T09:17:39.503Z,41.13
2019-02-24T09:20:44.725Z,41.56
2019-02-24T09:23:50.105Z,41.12
2019-02-24T09:26:55.231Z,41.72
2019-02-24T09:30:00.398Z,41.54
2019-02-24T09:33:05.489Z,40.53
2019-02-24T09:36:10.580Z,40.82
2019-02-24T09:39:18.486Z,40.50
2019-02-24T09:42:23.607Z,40.51
2019-02-24T09:45:28.760Z,39.28
2019-02-24T09:48:34.032Z,39.37
2019-02-24T09:51:39.202Z,40.01
2019-02-24T09:54:44.430Z,37.94
2019-02-24T09:57:50.571Z,37.76
2019-02-24T10:00:55.845Z,37.94
2019-02-24T10:04:00.935Z,36.33
2019-02-24T10:07:06.062Z,36.60
2019-02-24T10:10:11.465Z,35.84
2019-02-24T10:13:16.643Z,35.84
2019-02-24T10:16:21.773Z,36.11
2019-02-24T10:19:26.919Z,35.78
2019-02-24T10:22:32.016Z,35.23
2019-02-24T10:25:37.213Z,34.38
2019-02-24T10:28:42.479Z,35.19
2019-02-24T10:31:47.678Z,33.95
2019-02-24T10:34:52.901Z,34.41
2019-02-24T10:37:58.249Z,33.59
2019-02-24T10:41:03.436Z,34.79
2019-02-24T10:44:09.693Z,32.98
2019-02-24T10:47:15.038Z,32.63
2019-02-24T10:50:21.484Z,33.15
2019-02-24T10:53:28.157Z,32.70
2019-02-24T10:56:33.919Z,31.69
2019-02-24T10:59:39.070Z,31.92
2019-02-24T11:02:44.207Z,31.95
2019-02-24T11:05:49.448Z,31.01
2019-02-24T11:08:54.633Z,31.18
2019-02-24T11:11:59.733Z,30.91
2019-02-24T11:15:05.103Z,31.14
2019-02-24T11:18:10.712Z,31.17
2019-02-24T11:21:16.077Z,30.05
2019-02-24T11:24:21.204Z,30.73
2019-02-24T11:27:26.341Z,30.57
2019-02-24T11:30:31.501Z,31.04
2019-02-24T11:33:36.869Z,30.99
2019-02-24T11:36:42.004Z,29.33
2019-02-24T11:39:47.213Z,30.34
2019-02-24T11:42:52.430Z,29.24
2019-02-24T11:45:57.739Z,30.44
2019-02-24T11:49:02.906Z,29.26
2019-02-24T11:52:08.269Z,28.95
2019-02-24T11:55:13.703Z,29.47
2019-02-24T11:58:18.870Z,30.85
2019-02-24T12:01:24.047Z,29.49
2019-02-24T12:04:29.197Z,29.47
2019-02-24T12:07:34.487Z,28.11
2019-02-24T12:10:40.082Z,28.29
2019-02-24T12:13:45.152Z,28.63
2019-02-24T12:16:50.355Z,27.42
2019-02-24T12:19:55.542Z,28.39
2019-02-24T12:23:00.785Z,28.06
2019-02-24T12:26:05.971Z,27.13
2019-02-24T12:29:11.407Z,27.20
2019-02-24T12:32:16.575Z,27.89
2019-02-24T12:35:21.716Z,26.99
2019-02-24T12:38:26.910Z,26.88
2019-02-24T12:41:32.051Z,26.59
2019-02-24T12:44:37.232Z,26.71
2019-02-24T12:47:42.320Z,27.31
2019-02-24T12:50:47.500Z,26.29
2019-02-24T12:53:53.796Z,27.40
2019-02-24T12:56:58.955Z,26.46
2019-02-24T13:00:04.308Z,26.37
2019-02-24T13:03:09.653Z,26.58
2019-02-24T13:06:14.834Z,26.56
2019-02-24T13:09:23.987Z,25.99
2019-02-24T13:12:29.225Z,25.74
2019-02-24T13:15:34.371Z,25.61
2019-02-24T13:18:39.644Z,24.75
2019-02-24T13:21:46.430Z,25.09
2019-02-24T13:24:51.807Z,25.18
2019-02-24T13:27:56.959Z,25.45
2019-02-24T13:31:02.346Z,25.54
2019-02-24T13:34:07.600Z,25.20
2019-02-24T13:37:12.947Z,24.46
2019-02-24T13:40:18.103Z,25.17
2019-02-24T13:43:23.268Z,23.55
2019-02-24T13:46:28.564Z,23.79
2019-02-24T13:49:33.892Z,23.90
2019-02-24T13:52:39.036Z,22.23
2019-02-24T13:55:44.212Z,21.80
2019-02-24T13:58:49.352Z,22.42
2019-02-24T14:01:54.521Z,22.40
2019-02-24T14:04:59.666Z,22.49
2019-02-24T14:08:04.871Z,22.16
2019-02-24T14:11:10.036Z,22.58
2019-02-24T14:14:15.262Z,22.36
2019-02-24T14:17:20.416Z,23.92
2019-02-24T14:20:25.753Z,22.52
2019-02-24T14:23:30.961Z,22.35
2019-02-24T14:26:36.133Z,22.56
2019-02-24T14:29:41.285Z,22.71
2019-02-24T14:32:46.403Z,22.66
2019-02-24T14:35:51.708Z,22.95
2019-02-24T14:38:56.891Z,21.58
2019-02-24T14:42:01.983Z,22.29
2019-02-24T14:45:11.158Z,22.50
2019-02-24T14:48:17.513Z,22.55
2019-02-24T14:51:22.642Z,22.48
2019-02-24T14:54:27.697Z,22.28
2019-02-24T14:57:32.825Z,21.74
2019-02-24T15:00:38.058Z,22.35
2019-02-24T15:03:43.340Z,22.46
2019-02-24T15:06:48.522Z,22.55
2019-02-24T15:09:54.497Z,21.92
2019-02-24T15:12:59.612Z,23.36
2019-02-24T15:16:04.825Z,25.19
2019-02-24T15:19:09.925Z,25.96
2019-02-24T15:22:15.061Z,25.77
2019-02-24T15:25:20.419Z,26.12
2019-02-24T15:28:25.583Z,26.94
2019-02-24T15:31:30.863Z,27.18
2019-02-24T15:34:36.118Z,26.69
2019-02-24T15:37:41.376Z,27.39
2019-02-24T15:40:46.482Z,28.08
2019-02-24T15:43:51.734Z,27.46
2019-02-24T15:46:56.885Z,28.38
2019-02-24T15:50:02.505Z,28.75
2019-02-24T15:53:07.728Z,30.31
2019-02-24T15:56:13.132Z,28.52
2019-02-24T15:59:18.510Z,27.52
2019-02-24T16:02:23.662Z,28.49
2019-02-24T16:05:28.849Z,30.03
2019-02-24T16:08:34.900Z,30.82
2019-02-24T16:11:40.094Z,30.12
2019-02-24T16:14:45.224Z,31.31
2019-02-24T16:17:50.532Z,32.62
2019-02-24T16:20:55.706Z,32.83
2019-02-24T16:24:00.968Z,32.38
2019-02-24T16:27:06.251Z,32.38
2019-02-24T16:30:12.099Z,35.11
2019-02-24T16:33:17.204Z,34.64
2019-02-24T16:36:22.544Z,33.34
2019-02-24T16:39:27.700Z,34.73
2019-02-24T16:42:32.860Z,36.79
2019-02-24T16:45:38.099Z,38.45
2019-02-24T16:48:43.400Z,38.05
2019-02-24T16:51:48.562Z,38.78
2019-02-24T16:54:53.734Z,39.69
2019-02-24T16:57:58.950Z,40.88
2019-02-24T17:01:04.219Z,40.72
2019-02-24T17:04:09.504Z,41.86
2019-02-24T17:07:14.649Z,41.06
2019-02-24T17:10:20.004Z,40.48
2019-02-24T17:13:25.249Z,39.91
2019-02-24T17:16:30.389Z,42.91
2019-02-24T17:19:35.560Z,45.04
2019-02-24T17:22:40.695Z,47.73
2019-02-24T17:25:45.885Z,47.94
2019-02-24T17:28:52.197Z,48.02
2019-02-24T17:31:57.387Z,47.42
2019-02-24T17:35:02.546Z,46.34
2019-02-24T17:38:07.920Z,44.82
2019-02-24T17:41:13.023Z,43.46
2019-02-24T17:44:19.190Z,46.60
2019-02-24T17:47:24.394Z,48.79
2019-02-24T17:50:29.574Z,50.41
2019-02-24T17:53:34.884Z,51.22
2019-02-24T17:56:40.148Z,50.04
2019-02-24T17:59:45.466Z,50.69
2019-02-24T18:02:50.634Z,50.91
2019-02-24T18:05:57.011Z,51.68
2019-02-24T18:09:02.189Z,53.17
2019-02-24T18:12:08.964Z,53.53
2019-02-24T18:15:15.697Z,53.65
2019-02-24T18:18:21.060Z,53.74
2019-02-24T18:21:27.205Z,54.19
2019-02-24T18:24:32.397Z,54.06
2019-02-24T18:27:37.607Z,54.88
2019-02-24T18:30:44.413Z,54.87
2019-02-24T18:33:49.635Z,53.76
2019-02-24T18:36:54.831Z,54.08
2019-02-24T18:40:00.190Z,54.37
2019-02-24T18:43:05.415Z,53.52
2019-02-24T18:46:10.667Z,54.81
2019-02-24T18:49:15.837Z,53.98
2019-02-24T18:52:21.478Z,53.30
2019-02-24T18:55:36.554Z,54.29
2019-02-24T18:58:41.809Z,54.76
2019-02-24T19:01:47.838Z,55.06
2019-02-24T19:04:53.775Z,54.83
2019-02-24T19:07:59.890Z,56.03
2019-02-24T19:11:06.130Z,56.90
2019-02-24T19:14:11.388Z,57.33
2019-02-24T19:17:16.597Z,57.95
2019-02-24T19:20:21.831Z,57.63
2019-02-24T19:23:27.052Z,57.75
2019-02-24T19:26:32.288Z,57.21
2019-02-24T19:29:37.453Z,57.39
2019-02-24T19:32:42.686Z,55.36
2019-02-24T19:35:47.979Z,55.19
2019-02-24T19:38:55.019Z,54.81
2019-02-24T19:42:00.248Z,55.69
2019-02-24T19:45:05.781Z,57.25
2019-02-24T19:48:11.196Z,58.34
2019-02-24T19:51:16.399Z,58.70
2019-02-24T19:54:21.549Z,58.97
2019-02-24T19:57:26.839Z,58.51
2019-02-24T20:00:32.143Z,58.24
2019-02-24T20:03:37.524Z,58.09
2019-02-24T20:06:42.825Z,58.40
2019-02-24T20:09:47.992Z,58.48
2019-02-24T20:12:53.160Z,57.19
2019-02-24T20:15:58.666Z,60.08
2019-02-24T20:19:03.868Z,61.25
2019-02-24T20:22:09.060Z,61.60
2019-02-24T20:25:14.299Z,61.10
2019-02-24T20:28:19.429Z,60.86
2019-02-24T20:31:24.624Z,61.45
2019-02-24T20:34:29.793Z,61.49
2019-02-24T20:37:35.090Z,62.36
2019-02-24T20:40:40.402Z,62.90
2019-02-24T20:43:45.573Z,63.07
2019-02-24T20:46:50.981Z,63.40
2019-02-24T20:49:56.180Z,64.55
2019-02-24T20:53:01.404Z,64.75
2019-02-24T20:56:06.550Z,64.26
2019-02-24T20:59:11.763Z,63.25
2019-02-24T21:02:16.996Z,62.86
2019-02-24T21:05:22.283Z,61.99
2019-02-24T21:08:27.397Z,60.95
2019-02-24T21:11:32.595Z,60.79
2019-02-24T21:14:37.769Z,62.12
2019-02-24T21:17:43.027Z,63.80
2019-02-24T21:20:48.200Z,64.57
2019-02-24T21:23:53.471Z,65.42
2019-02-24T21:26:58.767Z,65.25
2019-02-24T21:30:04.441Z,65.11
2019-02-24T21:33:09.909Z,65.91
2019-02-24T21:36:15.369Z,66.04
2019-02-24T21:39:20.527Z,66.92
2019-02-24T21:42:25.829Z,67.84
2019-02-24T21:45:31.000Z,68.52
2019-02-24T21:48:36.255Z,68.73
2019-02-24T21:51:42.505Z,68.46
2019-02-24T21:54:47.758Z,68.48
2019-02-24T21:57:52.896Z,68.64
2019-02-24T22:00:58.169Z,68.78
2019-02-24T22:04:03.333Z,69.07
2019-02-24T22:07:09.462Z,69.20
2019-02-24T22:10:15.303Z,69.17
2019-02-24T22:13:20.537Z,70.08
2019-02-24T22:16:25.826Z,70.45
2019-02-24T22:19:31.237Z,71.00
2019-02-24T22:22:36.445Z,70.83
2019-02-24T22:25:41.611Z,71.08
2019-02-24T22:28:46.751Z,70.90
2019-02-24T22:31:52.247Z,71.40
2019-02-24T22:34:57.377Z,71.89
2019-02-24T22:38:02.547Z,71.78
2019-02-24T22:41:07.773Z,72.36
2019-02-24T22:44:12.936Z,72.11
2019-02-24T22:47:18.060Z,72.40
2019-02-24T22:50:23.296Z,72.83
2019-02-24T22:53:28.502Z,73.15
2019-02-24T22:56:33.635Z,73.60
2019-02-24T22:59:38.827Z,73.75
2019-02-24T23:02:44.011Z,73.08
2019-02-24T23:05:49.236Z,72.41
2019-02-24T23:08:54.764Z,72.86
2019-02-24T23:12:00.119Z,72.47
2019-02-24T23:15:05.575Z,72.88
2019-02-24T23:18:10.729Z,73.25
2019-02-24T23:21:15.905Z,72.72
2019-02-24T23:24:21.150Z,73.02
2019-02-24T23:27:26.351Z,73.66
2019-02-24T23:30:31.459Z,73.36
2019-02-24T23:33:36.652Z,73.67
2019-02-24T23:36:41.767Z,74.21
2019-02-24T23:39:46.963Z,74.82
2019-02-24T23:42:52.129Z,75.53
2019-02-24T23:45:57.312Z,74.92
2019-02-24T23:49:02.468Z,75.08
2019-02-24T23:52:07.860Z,75.25
2019-02-24T23:55:13.058Z,74.43
2019-02-24T23:58:18.320Z,75.18
